createdAt,value
2023-05-24T00:01:42.782Z,7.10
2023-05-24T00:04:11.397Z,6.43
2023-05-24T00:06:39.777Z,6.45
2023-05-24T00:09:07.943Z,6.75
2023-05-24T00:11:36.272Z,7.18
2023-05-24T00:14:06.173Z,6.95
2023-05-24T00:16:35.785Z,6.30
2023-05-24T00:19:04.103Z,6.32
2023-05-24T00:21:35.577Z,7.20
2023-05-24T00:24:03.820Z,6.32
2023-05-24T00:26:32.094Z,6.70
2023-05-24T00:29:01.277Z,6.68
2023-05-24T00:31:31.013Z,6.30
2023-05-24T00:33:59.324Z,6.30
2023-05-24T00:36:27.566Z,6.88
2023-05-24T00:38:55.832Z,7.03
2023-05-24T00:41:24.117Z,5.85
2023-05-24T00:43:54.427Z,6.45
2023-05-24T00:46:26.738Z,6.93
2023-05-24T00:48:58.286Z,6.35
2023-05-24T00:51:28.084Z,6.82
2023-05-24T00:53:56.791Z,6.90
2023-05-24T00:56:25.211Z,6.20
2023-05-24T00:58:54.886Z,6.38
2023-05-24T01:01:25.883Z,6.18
2023-05-24T01:04:05.565Z,5.80
2023-05-24T01:06:45.089Z,5.95
2023-05-24T01:09:27.059Z,5.70
2023-05-24T01:12:11.676Z,6.10
2023-05-24T01:14:54.814Z,5.63
2023-05-24T01:17:27.814Z,6.50
2023-05-24T01:20:00.138Z,6.60
2023-05-24T01:22:49.747Z,6.38
2023-05-24T01:25:29.017Z,6.57
2023-05-24T01:28:00.996Z,6.72
2023-05-24T01:30:29.978Z,6.05
2023-05-24T01:32:58.642Z,6.05
2023-05-24T01:35:26.947Z,6.13
2023-05-24T01:37:55.257Z,6.45
2023-05-24T01:40:23.678Z,6.13
2023-05-24T01:43:03.188Z,5.97
2023-05-24T01:45:40.257Z,6.68
2023-05-24T01:48:19.141Z,6.68
2023-05-24T01:50:53.756Z,5.78
2023-05-24T01:53:26.443Z,6.00
2023-05-24T01:55:58.484Z,6.37
2023-05-24T01:58:29.728Z,6.28
2023-05-24T02:00:58.985Z,6.32
2023-05-24T02:03:27.510Z,6.15
2023-05-24T02:05:57.096Z,6.53
2023-05-24T02:08:25.307Z,6.35
2023-05-24T02:10:55.490Z,6.65
2023-05-24T02:13:23.842Z,7.00
2023-05-24T02:15:53.790Z,6.95
2023-05-24T02:18:22.781Z,6.75
2023-05-24T02:20:51.102Z,6.82
2023-05-24T02:23:19.320Z,7.72
2023-05-24T02:25:47.560Z,7.88
2023-05-24T02:28:16.078Z,7.40
2023-05-24T02:30:44.878Z,7.25
2023-05-24T02:33:14.909Z,7.50
2023-05-24T02:35:43.251Z,7.25
2023-05-24T02:38:11.666Z,7.65
2023-05-24T02:40:44.202Z,7.00
2023-05-24T02:43:12.494Z,6.60
2023-05-24T02:45:40.809Z,6.88
2023-05-24T02:48:09.026Z,7.18
2023-05-24T02:50:38.596Z,8.15
2023-05-24T02:53:06.949Z,7.93
2023-05-24T02:55:35.252Z,7.90
2023-05-24T02:58:03.529Z,8.30
2023-05-24T03:00:33.323Z,8.10
2023-05-24T03:03:03.425Z,8.68
2023-05-24T03:05:31.787Z,8.90
2023-05-24T03:08:01.476Z,8.52
2023-05-24T03:10:30.247Z,9.50
2023-05-24T03:12:58.575Z,9.57
2023-05-24T03:15:26.949Z,9.20
2023-05-24T03:17:55.307Z,8.68
2023-05-24T03:20:23.959Z,9.80
2023-05-24T03:22:52.919Z,10.23
2023-05-24T03:25:22.619Z,9.65
2023-05-24T03:27:50.820Z,9.85
2023-05-24T03:30:20.540Z,10.43
2023-05-24T03:32:55.885Z,10.40
2023-05-24T03:35:24.155Z,11.45
2023-05-24T03:37:52.890Z,12.25
2023-05-24T03:40:25.876Z,12.13
2023-05-24T03:42:59.176Z,13.65
2023-05-24T03:45:53.611Z,12.05
2023-05-24T03:48:21.952Z,12.52
2023-05-24T03:50:52.993Z,12.70
2023-05-24T03:53:23.361Z,13.00
2023-05-24T03:55:53.411Z,12.00
2023-05-24T03:58:23.453Z,12.05
2023-05-24T04:00:52.397Z,12.68
2023-05-24T04:03:21.533Z,11.93
2023-05-24T04:05:49.817Z,11.10
2023-05-24T04:08:18.770Z,12.40
2023-05-24T04:10:46.991Z,11.68
2023-05-24T04:13:16.609Z,11.27
2023-05-24T04:15:44.884Z,12.75
2023-05-24T04:18:13.304Z,12.23
2023-05-24T04:20:41.941Z,12.98
2023-05-24T04:23:11.418Z,11.93
2023-05-24T04:25:40.059Z,12.27
2023-05-24T04:28:09.368Z,7.70
2023-05-24T04:30:38.967Z,11.60
2023-05-24T04:33:08.510Z,10.93
2023-05-24T04:35:36.836Z,11.73
2023-05-24T04:38:05.702Z,12.95
2023-05-24T04:40:34.103Z,12.07
2023-05-24T04:43:02.854Z,11.65
2023-05-24T04:45:32.966Z,11.98
2023-05-24T04:48:02.534Z,10.63
2023-05-24T04:50:30.813Z,11.77
2023-05-24T04:52:59.243Z,11.05
2023-05-24T04:55:27.332Z,11.48
2023-05-24T04:57:55.522Z,10.20
2023-05-24T05:00:23.784Z,11.65
2023-05-24T05:02:52.522Z,12.07
2023-05-24T05:05:22.452Z,11.50
2023-05-24T05:07:50.667Z,12.88
2023-05-24T05:10:19.456Z,12.27
2023-05-24T05:12:48.334Z,11.25
2023-05-24T05:15:16.505Z,10.55
2023-05-24T05:17:45.803Z,12.88
2023-05-24T05:20:14.116Z,10.57
2023-05-24T05:22:48.384Z,9.90
2023-05-24T05:25:18.074Z,10.63
2023-05-24T05:27:46.302Z,12.00
2023-05-24T05:30:14.865Z,12.80
2023-05-24T05:32:43.222Z,10.98
2023-05-24T05:35:11.510Z,11.18
2023-05-24T05:37:43.721Z,9.65
2023-05-24T05:40:14.103Z,11.82
2023-05-24T05:42:42.190Z,11.38
2023-05-24T05:45:11.030Z,10.45
2023-05-24T05:47:39.204Z,10.93
2023-05-24T05:50:08.642Z,10.32
2023-05-24T05:52:36.876Z,10.23
2023-05-24T05:55:05.534Z,11.20
2023-05-24T05:57:35.311Z,10.80
2023-05-24T06:00:03.945Z,10.75
2023-05-24T06:02:40.194Z,10.60
2023-05-24T06:05:09.080Z,11.35
2023-05-24T06:07:37.644Z,10.48
2023-05-24T06:10:06.341Z,9.95
2023-05-24T06:12:38.856Z,10.82
2023-05-24T06:15:08.240Z,10.23
2023-05-24T06:17:37.496Z,9.70
2023-05-24T06:20:08.355Z,10.88
2023-05-24T06:22:37.776Z,11.07
2023-05-24T06:25:06.831Z,10.25
2023-05-24T06:27:35.175Z,9.85
2023-05-24T06:30:05.882Z,10.18
2023-05-24T06:32:35.072Z,8.10
2023-05-24T06:35:04.012Z,10.15
2023-05-24T06:37:33.673Z,9.23
2023-05-24T06:40:03.874Z,10.30
2023-05-24T06:42:32.346Z,9.93
2023-05-24T06:45:01.496Z,10.38
2023-05-24T06:47:31.241Z,9.45
2023-05-24T06:50:01.160Z,9.45
2023-05-24T06:52:33.800Z,10.40
2023-05-24T06:55:04.595Z,9.15
2023-05-24T06:57:32.887Z,9.75
2023-05-24T07:00:01.063Z,9.50
2023-05-24T07:02:31.335Z,9.30
2023-05-24T07:05:03.071Z,9.40
2023-05-24T07:07:35.421Z,9.30
2023-05-24T07:10:03.649Z,8.40
2023-05-24T07:12:34.252Z,9.05
2023-05-24T07:15:04.920Z,8.77
2023-05-24T07:17:34.752Z,8.20
2023-05-24T07:20:08.240Z,8.38
2023-05-24T07:22:36.547Z,8.45
2023-05-24T07:25:05.637Z,8.35
2023-05-24T07:27:33.946Z,8.57
2023-05-24T07:30:02.777Z,8.27
2023-05-24T07:32:33.233Z,8.38
2023-05-24T07:35:04.081Z,8.27
2023-05-24T07:37:32.779Z,8.35
2023-05-24T07:40:01.509Z,7.80
2023-05-24T07:42:29.918Z,8.13
2023-05-24T07:44:58.285Z,7.60
2023-05-24T07:47:29.941Z,6.90
2023-05-24T07:49:59.725Z,6.20
2023-05-24T07:52:32.664Z,7.78
2023-05-24T07:55:01.350Z,7.10
2023-05-24T07:57:30.184Z,8.18
2023-05-24T07:59:59.191Z,6.63
2023-05-24T08:02:29.193Z,6.35
2023-05-24T08:04:57.467Z,6.00
2023-05-24T08:07:25.843Z,6.82
2023-05-24T08:09:59.801Z,6.50
2023-05-24T08:12:30.481Z,7.40
2023-05-24T08:15:01.914Z,6.68
2023-05-24T08:17:33.133Z,6.28
2023-05-24T08:20:04.312Z,6.53
2023-05-24T08:22:32.703Z,6.38
2023-05-24T08:25:02.681Z,6.43
2023-05-24T08:27:31.555Z,6.88
2023-05-24T08:30:00.956Z,6.38
2023-05-24T08:32:32.404Z,6.20
2023-05-24T08:35:19.321Z,6.25
2023-05-24T08:37:49.723Z,6.30
2023-05-24T08:40:20.184Z,6.63
2023-05-24T08:42:50.406Z,5.78
2023-05-24T08:45:22.600Z,5.82
2023-05-24T08:47:55.470Z,5.55
2023-05-24T08:50:26.130Z,6.47
2023-05-24T08:52:55.523Z,5.47
2023-05-24T08:55:25.945Z,5.80
2023-05-24T08:57:56.590Z,5.63
2023-05-24T09:00:25.499Z,5.63
2023-05-24T09:03:01.361Z,6.22
2023-05-24T09:05:31.347Z,5.57
2023-05-24T09:08:01.582Z,5.53
2023-05-24T09:10:44.799Z,5.57
2023-05-24T09:13:21.853Z,5.38
2023-05-24T09:15:50.288Z,5.28
2023-05-24T09:18:18.984Z,5.30
2023-05-24T09:20:47.845Z,5.70
2023-05-24T09:23:18.734Z,5.57
2023-05-24T09:25:49.439Z,5.50
2023-05-24T09:28:19.463Z,4.80
2023-05-24T09:30:59.198Z,5.35
2023-05-24T09:33:30.782Z,4.95
2023-05-24T09:36:00.182Z,5.18
2023-05-24T09:38:29.811Z,5.15
2023-05-24T09:41:04.135Z,5.68
2023-05-24T09:43:34.691Z,5.05
2023-05-24T09:46:04.713Z,5.63
2023-05-24T09:48:33.465Z,4.93
2023-05-24T09:51:06.316Z,5.10
2023-05-24T09:53:35.932Z,4.97
2023-05-24T09:56:08.680Z,5.10
2023-05-24T09:58:37.903Z,4.85
2023-05-24T10:01:08.386Z,5.07
2023-05-24T10:03:38.003Z,4.78
2023-05-24T10:08:57.276Z,4.32
2023-05-24T10:11:27.728Z,4.40
2023-05-24T10:13:57.048Z,4.75
2023-05-24T10:16:25.243Z,4.38
2023-05-24T10:18:54.540Z,3.97
2023-05-24T10:21:25.962Z,4.07
2023-05-24T10:24:00.312Z,4.20
2023-05-24T10:26:32.816Z,3.60
2023-05-24T10:29:07.998Z,4.07
2023-05-24T10:31:39.799Z,4.35
2023-05-24T10:34:09.213Z,3.30
2023-05-24T10:36:40.691Z,3.72
2023-05-24T10:39:14.392Z,4.03
2023-05-24T10:41:44.285Z,3.63
2023-05-24T10:41:46.628Z,4.53
2023-05-24T10:44:13.737Z,3.60
2023-05-24T10:47:04.582Z,3.60
2023-05-24T10:49:32.854Z,3.60
2023-05-24T10:52:08.365Z,3.50
2023-05-24T10:54:39.792Z,3.75
2023-05-24T10:57:12.896Z,3.50
2023-05-24T10:59:44.292Z,3.22
2023-05-24T11:02:16.562Z,3.00
2023-05-24T11:04:49.472Z,3.05
2023-05-24T11:07:19.860Z,3.10
2023-05-24T11:09:54.363Z,3.17
2023-05-24T11:12:24.282Z,2.97
2023-05-24T11:14:53.957Z,3.13
2023-05-24T11:17:23.488Z,2.78
2023-05-24T11:19:53.565Z,3.30
2023-05-24T11:22:23.509Z,2.90
2023-05-24T11:24:53.582Z,2.38
2023-05-24T11:27:23.445Z,2.75
2023-05-24T11:29:52.209Z,2.67
2023-05-24T11:32:24.221Z,2.70
2023-05-24T11:34:52.597Z,2.95
2023-05-24T11:37:31.530Z,2.83
2023-05-24T11:40:11.178Z,2.90
2023-05-24T11:42:41.263Z,2.38
2023-05-24T11:45:10.916Z,2.20
2023-05-24T11:47:40.162Z,1.95
2023-05-24T11:50:09.313Z,2.42
2023-05-24T11:52:41.233Z,2.70
2023-05-24T11:55:16.627Z,2.90
2023-05-24T11:57:55.156Z,2.30
2023-05-24T12:00:27.137Z,2.33
2023-05-24T12:02:58.104Z,2.30
2023-05-24T12:05:26.372Z,2.28
2023-05-24T12:08:04.954Z,2.00
2023-05-24T12:10:34.598Z,2.10
2023-05-24T12:13:04.888Z,2.30
2023-05-24T12:15:33.301Z,2.50
2023-05-24T12:18:02.567Z,2.30
2023-05-24T12:20:31.117Z,2.38
2023-05-24T12:22:59.401Z,2.08
2023-05-24T12:25:28.936Z,2.22
2023-05-24T12:27:57.682Z,2.67
2023-05-24T12:30:28.476Z,2.30
2023-05-24T12:32:58.601Z,2.50
2023-05-24T12:35:26.867Z,2.13
2023-05-24T12:38:01.181Z,2.20
2023-05-24T12:40:33.860Z,2.20
2023-05-24T12:43:05.486Z,2.25
2023-05-24T12:45:35.258Z,2.28
2023-05-24T12:48:05.126Z,2.10
2023-05-24T12:50:34.943Z,1.88
2023-05-24T12:53:03.334Z,2.20
2023-05-24T12:55:32.890Z,2.28
2023-05-24T12:58:03.416Z,2.17
2023-05-24T13:00:31.804Z,2.10
2023-05-24T13:03:01.620Z,1.90
2023-05-24T13:05:30.830Z,1.85
2023-05-24T13:08:01.285Z,2.00
2023-05-24T13:10:29.573Z,2.03
2023-05-24T13:12:57.771Z,2.28
2023-05-24T13:15:27.403Z,2.30
2023-05-24T13:17:56.396Z,2.30
2023-05-24T13:20:26.472Z,2.22
2023-05-24T13:22:54.911Z,2.50
2023-05-24T13:25:23.717Z,2.28
2023-05-24T13:27:52.000Z,2.30
2023-05-24T13:30:27.664Z,2.05
2023-05-24T13:32:56.802Z,2.22
2023-05-24T13:35:26.698Z,2.05
2023-05-24T13:37:55.949Z,2.08
2023-05-24T13:40:25.287Z,2.42
2023-05-24T13:42:53.931Z,2.20
2023-05-24T13:45:22.750Z,2.10
2023-05-24T13:47:52.227Z,2.38
2023-05-24T13:50:22.885Z,2.40
2023-05-24T13:52:52.632Z,2.40
2023-05-24T13:55:20.990Z,2.50
2023-05-24T13:57:52.134Z,2.40
2023-05-24T14:00:21.645Z,2.20
2023-05-24T14:02:50.275Z,1.90
2023-05-24T14:05:27.595Z,2.90
2023-05-24T14:08:06.265Z,2.40
2023-05-24T14:10:36.890Z,1.98
2023-05-24T14:13:29.079Z,2.00
2023-05-24T14:15:53.466Z,2.25
2023-05-24T14:18:22.735Z,2.50
2023-05-24T14:20:50.958Z,2.25
2023-05-24T14:23:20.569Z,2.10
2023-05-24T14:25:51.974Z,2.22
2023-05-24T14:28:22.385Z,2.42
2023-05-24T14:30:50.981Z,2.10
2023-05-24T14:33:21.424Z,2.33
2023-05-24T14:35:50.334Z,1.98
2023-05-24T14:38:18.667Z,1.90
2023-05-24T14:40:48.497Z,2.05
2023-05-24T14:43:16.908Z,1.90
2023-05-24T14:45:45.639Z,1.67
2023-05-24T14:48:16.985Z,1.90
2023-05-24T14:50:47.367Z,2.00
2023-05-24T14:53:15.643Z,1.80
2023-05-24T14:55:44.515Z,1.80
2023-05-24T14:58:14.728Z,1.92
2023-05-24T15:00:43.982Z,2.10
2023-05-24T15:03:14.760Z,2.13
2023-05-24T15:05:43.753Z,2.20
2023-05-24T15:08:12.363Z,2.20
2023-05-24T15:10:40.985Z,2.22
2023-05-24T15:13:09.511Z,2.00
2023-05-24T15:15:41.236Z,2.20
2023-05-24T15:18:28.804Z,1.90
2023-05-24T15:20:58.487Z,1.90
2023-05-24T15:23:32.970Z,2.30
2023-05-24T15:26:02.068Z,2.35
2023-05-24T15:28:30.861Z,1.90
2023-05-24T15:31:09.977Z,1.92
2023-05-24T15:33:38.477Z,2.00
2023-05-24T15:36:07.383Z,2.47
2023-05-24T15:38:36.112Z,2.25
2023-05-24T15:41:04.471Z,2.13
2023-05-24T15:43:32.725Z,2.10
2023-05-24T15:46:04.480Z,2.30
2023-05-24T15:48:34.958Z,2.30
2023-05-24T15:51:58.090Z,2.17
2023-05-24T15:53:52.258Z,2.50
2023-05-24T15:56:21.764Z,3.03
2023-05-24T15:58:50.172Z,2.45
2023-05-24T16:01:20.219Z,2.50
2023-05-24T16:03:48.718Z,2.45
2023-05-24T16:06:17.077Z,2.78
2023-05-24T16:08:45.676Z,2.60
2023-05-24T16:11:16.072Z,2.88
2023-05-24T16:13:44.346Z,2.85
2023-05-24T16:16:17.360Z,2.70
2023-05-24T16:18:49.033Z,3.30
2023-05-24T16:21:17.285Z,2.72
2023-05-24T16:23:45.599Z,2.90
2023-05-24T16:26:13.829Z,3.20
2023-05-24T16:28:42.299Z,3.08
2023-05-24T16:31:10.748Z,3.15
2023-05-24T16:33:39.338Z,3.60
2023-05-24T16:36:09.677Z,3.50
2023-05-24T16:38:38.625Z,3.33
2023-05-24T16:41:07.381Z,3.13
2023-05-24T16:43:35.775Z,3.45
2023-05-24T16:46:04.097Z,3.30
2023-05-24T16:48:32.487Z,4.28
2023-05-24T16:51:01.587Z,3.63
2023-05-24T16:53:31.376Z,3.75
2023-05-24T16:55:59.720Z,4.18
2023-05-24T16:58:30.213Z,3.83
2023-05-24T17:00:58.952Z,4.03
2023-05-24T17:03:29.563Z,3.70
2023-05-24T17:06:03.555Z,4.50
2023-05-24T17:08:35.392Z,4.18
2023-05-24T17:11:06.746Z,4.40
2023-05-24T17:13:35.372Z,4.35
2023-05-24T17:16:04.887Z,4.55
2023-05-24T17:18:33.477Z,4.15
2023-05-24T17:21:03.298Z,4.70
2023-05-24T17:23:32.775Z,4.80
2023-05-24T17:26:03.029Z,4.05
2023-05-24T17:28:31.488Z,4.20
2023-05-24T17:31:01.311Z,3.80
2023-05-24T17:33:31.558Z,4.50
2023-05-24T17:36:02.823Z,4.80
2023-05-24T17:38:33.303Z,4.35
2023-05-24T17:41:03.174Z,3.85
2023-05-24T17:43:32.886Z,4.40
2023-05-24T17:46:06.820Z,3.80
2023-05-24T17:48:38.888Z,4.00
2023-05-24T17:51:08.735Z,4.25
2023-05-24T17:53:38.304Z,3.15
2023-05-24T17:56:09.056Z,3.53
2023-05-24T17:58:37.814Z,3.60
2023-05-24T18:01:07.551Z,3.90
2023-05-24T18:03:37.946Z,3.80
2023-05-24T18:06:07.385Z,4.20
2023-05-24T18:08:38.575Z,3.45
2023-05-24T18:11:09.764Z,3.53
2023-05-24T18:13:38.701Z,3.53
2023-05-24T18:16:07.752Z,3.40
2023-05-24T18:18:38.115Z,3.42
2023-05-24T18:21:07.009Z,3.13
2023-05-24T18:23:37.884Z,3.20
2023-05-24T18:26:09.983Z,3.58
2023-05-24T18:28:38.862Z,3.10
2023-05-24T18:31:10.452Z,3.38
2023-05-24T18:33:41.370Z,3.33
2023-05-24T18:36:09.902Z,3.75
2023-05-24T18:38:40.118Z,3.08
2023-05-24T18:41:12.173Z,3.72
2023-05-24T18:43:43.070Z,3.40
2023-05-24T18:46:13.619Z,3.20
2023-05-24T18:48:44.023Z,3.30
2023-05-24T18:51:13.147Z,3.08
2023-05-24T18:53:41.519Z,3.25
2023-05-24T18:56:11.398Z,3.67
2023-05-24T18:58:40.147Z,3.50
2023-05-24T19:01:09.744Z,3.80
2023-05-24T19:03:39.315Z,3.42
2023-05-24T19:06:07.704Z,3.85
2023-05-24T19:08:36.280Z,4.10
2023-05-24T19:11:06.897Z,4.40
2023-05-24T19:13:36.624Z,3.65
2023-05-24T19:16:05.028Z,4.30
2023-05-24T19:18:33.502Z,4.25
2023-05-24T19:21:02.043Z,4.40
2023-05-24T19:23:30.395Z,4.57
2023-05-24T19:25:58.892Z,4.63
2023-05-24T19:28:27.412Z,4.43
2023-05-24T19:30:57.003Z,4.60
2023-05-24T19:33:25.325Z,4.40
2023-05-24T19:35:53.897Z,4.30
2023-05-24T19:38:22.520Z,4.60
2023-05-24T19:40:51.052Z,3.97
2023-05-24T19:43:21.633Z,4.40
2023-05-24T19:46:00.017Z,4.53
2023-05-24T19:48:38.100Z,4.63
2023-05-24T19:51:06.354Z,4.45
2023-05-24T19:53:34.949Z,4.40
2023-05-24T19:56:03.355Z,4.68
2023-05-24T19:58:31.607Z,4.75
2023-05-24T20:01:01.228Z,5.70
2023-05-24T20:03:29.793Z,4.93
2023-05-24T20:05:58.273Z,5.07
2023-05-24T20:08:27.067Z,5.40
2023-05-24T20:10:55.332Z,5.15
2023-05-24T20:13:24.081Z,5.22
2023-05-24T20:15:55.084Z,5.45
2023-05-24T20:18:25.640Z,5.07
2023-05-24T20:20:55.225Z,5.80
2023-05-24T20:23:27.515Z,5.88
2023-05-24T20:25:56.661Z,5.97
2023-05-24T20:28:30.629Z,5.85
2023-05-24T20:31:00.592Z,6.63
2023-05-24T20:33:30.793Z,6.53
2023-05-24T20:35:59.653Z,6.95
2023-05-24T20:38:28.421Z,6.72
2023-05-24T20:40:57.010Z,7.13
2023-05-24T20:43:25.391Z,6.07
2023-05-24T20:45:53.874Z,6.68
2023-05-24T20:48:23.441Z,7.20
2023-05-24T20:50:53.019Z,6.93
2023-05-24T20:53:21.426Z,7.13
2023-05-24T20:55:49.886Z,7.10
2023-05-24T20:58:18.803Z,6.75
2023-05-24T21:00:47.121Z,7.30
2023-05-24T21:03:17.378Z,7.07
2023-05-24T21:05:45.862Z,6.68
2023-05-24T21:08:15.716Z,6.88
2023-05-24T21:10:43.911Z,7.22
2023-05-24T21:13:12.659Z,6.15
2023-05-24T21:15:42.034Z,6.50
2023-05-24T21:18:12.453Z,6.75
2023-05-24T21:20:40.928Z,6.45
2023-05-24T21:23:09.718Z,6.55
2023-05-24T21:25:39.613Z,7.43
2023-05-24T21:28:07.863Z,9.48
2023-05-24T21:30:36.101Z,9.10
2023-05-24T21:33:04.519Z,10.25
2023-05-24T21:35:33.650Z,10.80
2023-05-24T21:38:01.897Z,11.73
2023-05-24T21:40:30.089Z,12.15
2023-05-24T21:42:59.681Z,12.73
2023-05-24T21:45:27.926Z,13.10
2023-05-24T21:47:56.135Z,13.65
2023-05-24T21:50:24.367Z,13.68
2023-05-24T21:52:52.505Z,13.50
2023-05-24T21:55:21.193Z,14.18
2023-05-24T21:57:49.395Z,14.48
2023-05-24T22:00:20.106Z,15.38
2023-05-24T22:02:49.687Z,14.68
2023-05-24T22:07:55.059Z,12.82
2023-05-24T22:10:23.255Z,12.00
2023-05-24T22:12:51.353Z,9.93
2023-05-24T22:15:21.173Z,10.68
2023-05-24T22:17:50.483Z,10.82
2023-05-24T22:20:19.355Z,11.32
2023-05-24T22:22:53.681Z,10.38
2023-05-24T22:25:22.177Z,10.65
2023-05-24T22:27:50.557Z,11.02
2023-05-24T22:30:20.311Z,11.00
2023-05-24T22:32:48.654Z,10.43
2023-05-24T22:35:17.096Z,11.07
2023-05-24T22:37:45.282Z,10.48
2023-05-24T22:40:14.453Z,8.98
2023-05-24T22:42:42.681Z,9.70
2023-05-24T22:45:11.837Z,9.30
2023-05-24T22:47:41.587Z,8.52
2023-05-24T22:50:10.841Z,9.45
2023-05-24T22:52:42.541Z,9.07
2023-05-24T22:55:11.203Z,9.50
2023-05-24T22:57:39.411Z,9.18
2023-05-24T23:00:09.055Z,9.20
2023-05-24T23:02:37.447Z,9.82
2023-05-24T23:05:08.099Z,10.45
2023-05-24T23:07:37.537Z,9.63
2023-05-24T23:10:06.211Z,10.65
2023-05-24T23:12:34.473Z,10.02
2023-05-24T23:15:04.836Z,10.00
2023-05-24T23:17:33.103Z,9.88
2023-05-24T23:20:01.276Z,8.80
2023-05-24T23:22:30.830Z,9.55
2023-05-24T23:24:58.973Z,8.68
2023-05-24T23:27:27.039Z,9.43
2023-05-24T23:29:55.239Z,9.02
2023-05-24T23:32:23.478Z,8.60
2023-05-24T23:34:51.745Z,9.10
2023-05-24T23:37:20.181Z,9.50
2023-05-24T23:39:49.694Z,9.85
2023-05-24T23:42:17.866Z,9.48
2023-05-24T23:44:46.089Z,9.00
2023-05-24T23:47:14.293Z,9.98
2023-05-24T23:49:42.399Z,10.20
2023-05-24T23:52:10.723Z,9.88
2023-05-24T23:54:39.654Z,8.73
2023-05-24T23:57:09.230Z,10.18
2023-05-24T23:59:38.300Z,10.40
